Impacts TAF Board
For situational awareness. Not to be used for flight planning purposes.
IDs:

KGPT - Gulfport-Biloxi Intl, MS, US

Issued at 0534 UTC 24 Jan 2019
Updated at 0706 UTC 24 Jan 2019
Potential Impact None Slight Moderate High
Time0653Z 24/08Z 24/09Z 24/10Z 24/11Z 24/12Z 24/13Z 24/14Z 24/15Z 24/16Z 24/17Z 24/18Z 24/19Z 24/20Z>>
Type OBS PRVL PRVL PRVL PRVL PRVL PRVL PRVL PRVL PRVL PRVL PRVL PRVL PRVL
VIS 9 >6 >6 >6 >6 >6 >6 >6 >6 >6 >6 >6 >6 >6
CIG 7 21 50 50 -- -- -- -- -- -- -- -- -- --
Cover OVC BKN BKN BKN SCT SCT FEW FEW FEW FEW FEW FEW FEW FEW
FltCat IFR MVFR VFR VFR VFR VFR VFR VFR VFR VFR VFR VFR VFR VFR
WX -- -- -- -- -- -- -- -- -- -- -- -- -- --
WDir 310 320 320 320 330 330 330 330 330 330 330 330 330 330
WSpd 12 13 13 13 11 11 9 9 9 9 9 9 9 9
WGst -- 27 25 25 21 21 -- -- -- -- -- -- -- --
Raw TAF
KGPT 240534Z 2406/2506 30012KT P6SM OVC007
  FM240800 32013G27KT P6SM BKN021
  FM240900 32013G25KT P6SM BKN050
  FM241100 33011G21KT P6SM SCT110
  FM241300 33009KT P6SM FEW250


Raw METAR
KGPT 240653Z AUTO 31012KT 9SM OVC007 04/03 A2997 RMK AO2 SLP146 T00440033
KGPT 240553Z AUTO 30013KT 10SM OVC007 06/04 A2996 RMK AO2 SLP146 60004 T00560039 10133 20056 401940056 53016
KGPT 240453Z 30012KT 10SM OVC007 07/06 A2992 RMK AO2 SLP131 T00670056

METAR Board
Radar Display
Forecast Discussion
For situational awareness. Not to be used for flight planning purposes.